NCAR-RAP Real-Time Weather Data

Output produced by METARs form (10 April 2020  07:13 UTC)
found at http://weather.rap.ucar.edu/surface/
 
KATY 100653Z AUTO 23006KT 10SM CLR M06/M07 A3014 RMK AO2 SLP230 T10561072
KATY 100553Z AUTO 27005KT 10SM CLR M04/M07 A3015 RMK AO2 SLP233 T10441067 10011 21044 400221044 55001
KATY 100453Z AUTO 26006KT 10SM CLR M03/M06 A3015 RMK AO2 SLP233 T10281056
KATY 100353Z AUTO 29005KT 10SM CLR M02/M06 A3015 RMK AO2 SLP233 T10171056
KATY 100253Z AUTO 30006KT 10SM CLR M02/M06 A3016 RMK AO2 SLP233 T10171056 53008
KATY 100153Z AUTO 31008KT 10SM CLR M01/M06 A3014 RMK AO2 SLP228 T10111056
KATY 100053Z AUTO 34011KT 10SM CLR 00/M07 A3013 RMK AO2 SLP224 T00001067
KATY 092353Z AUTO 33013G24KT 10SM FEW034 01/M07 A3013 RMK AO2 PK WND 34027/2335 SLP223 60000 T00061067 10022 21022 53002
KATY 092253Z AUTO 34020G27KT 10SM BKN036 02/M07 A3013 RMK AO2 PK WND 35030/2228 SLP223 T00171067
KATY 092153Z AUTO 33021G28KT 10SM BKN041 02/M08 A3012 RMK AO2 PK WND 33030/2132 SLP219 T00221078
KATY 092053Z AUTO 33020G28KT 10SM BKN041 BKN047 01/M08 A3013 RMK AO2 PK WND 34032/1956 SLP222 60000 T00061083 50015
KATY 091953Z AUTO 34022G32KT 10SM OVC040 01/M08 A3013 RMK AO2 PK WND 34036/1855 SLP221 T00061083
KATY 091853Z AUTO 34024G35KT 10SM BKN034 BKN042 00/M07 A3011 RMK AO2 PK WND 33036/1842 SNB02E38 SLP214 P0000 T00001067
KATY 091838Z AUTO 33024G34KT 9SM FEW012 BKN033 BKN060 01/M06 A3010 RMK AO2 PK WND 33034/1835 SNB02E38 P0000 T00061056
KATY 091818Z AUTO 33019G30KT 3SM -SN FEW009 BKN027 OVC060 M01/M04 A3009 RMK AO2 PK WND 33033/1803 SNB02 P0000 T10111044
KATY 091815Z AUTO 33019G30KT 1 1/2SM -SN FEW009 BKN033 OVC065 M02/M04 A3009 RMK AO2 PK WND 33033/1803 SNB02 P0000 T10171044
KATY 091812Z AUTO 32021G33KT 3/4SM -SN SCT015 BKN029 OVC050 M02/M04 A3009 RMK AO2 PK WND 33033/1803 SNB02 P0000 T10171044
KATY 091805Z AUTO 34024G33KT 1SM -SN FEW015 BKN029 BKN039 M02/M05 A3009 RMK AO2 PK WND 33033/1803 SNB02 P0000 T10171050
KATY 091803Z AUTO 34026G33KT 1 1/2SM -SN FEW020 SCT029 BKN037 M01/M06 A3009 RMK AO2 PK WND 33033/1803 SNB02 P0000 T10061056
KATY 091753Z AUTO 33021G31KT 10SM FEW021 BKN037 OVC055 M01/M05 A3008 RMK AO2 PK WND 32031/1745 SNE44 SLP205 P0000 60000 T10061050 10006 21033 51014
KATY 091653Z AUTO 33020G28KT 8SM -SN FEW015 BKN036 OVC048 M02/M05 A3006 RMK AO2 PK WND 33032/1630 SLP200 P0000 T10171050
KATY 091645Z AUTO 33018G24KT 1 3/4SM -SN FEW012 SCT020 BKN036 M02/M05 A3006 RMK AO2 PK WND 33032/1630 P0000 T10171050
KATY 091633Z AUTO 34026G32KT 1/2SM SN SCT014 BKN022 OVC043 M02/M05 A3006 RMK AO2 PK WND 33032/1630 P0000 T10221050
KATY 091631Z AUTO 34024G32KT 1 3/4SM -SN SCT016 BKN028 OVC043 M01/M05 A3006 RMK AO2 PK WND 33032/1630 P0000 T10061050
KATY 091627Z AUTO 33018G26KT 2 1/2SM -SN FEW017 BKN030 OVC043 M01/M05 A3006 RMK AO2 PK WND 32029/1600 P0000 T10061050
KATY 091619Z AUTO 34019G28KT 1 1/4SM -SN SCT017 BKN025 OVC070 M02/M06 A3005 RMK AO2 PK WND 32029/1600 VIS 1/2V5 P0000 T10221056
KATY 091616Z AUTO 34022G28KT 2 1/2SM -SN SCT017 BKN022 OVC070 M01/M06 A3005 RMK AO2 PK WND 32029/1600 VIS 1/2V5 P0000 T10111056
KATY 091553Z AUTO 33020G35KT 5SM -SN FEW027 BKN038 OVC075 M02/M06 A3003 RMK AO2 PK WND 34035/1548 SLP191 P0000 T10171061
KATY 091453Z AUTO 30018G29KT 9SM -SN FEW024 BKN039 OVC060 M01/M06 A3000 RMK AO2 PK WND 33035/1402 SNB51 SLP178 P0000 60000 T10061061 51022
KATY 091353Z AUTO 33025G35KT 10SM SCT033 BKN046 OVC080 M01/M08 A2999 RMK AO2 PK WND 34035/1350 SLP171 T10061083
KATY 091253Z AUTO 32019G37KT 10SM FEW025 SCT030 BKN090 M01/M08 A2996 RMK AO2 PK WND 32037/1245 SNB37E46 SLP164 P0000 T10111078
KATY 091153Z AUTO 31021G35KT 10SM BKN055 BKN070 OVC090 M01/M06 A2994 RMK AO2 PK WND 32035/1145 SLP152 T10061061 10011 21006 53005
KATY 091053Z AUTO 30015G20KT 10SM BKN060 OVC085 M01/M04 A2992 RMK AO2 SLP147 T10061044
KATY 090953Z AUTO 29010KT 10SM SCT090 M01/M04 A2991 RMK AO2 SLP143 T10061044
KATY 090853Z AUTO 28009KT 10SM CLR M01/M04 A2992 RMK AO2 SLP145 T10061044 58006